Terminal Aerodrome Forecast
Issued by NWS

Home | Current Version | Previous Version | Text Only | Print | Product List | Glossary On
Versions: 1 2 3 4 5 6 7 8 9 10 11 12 13 14 15 16 17
571
FTPA31 PHFO 291730
TAFHNY
TAF
PHNY 291730Z 2918/3018 VRB06KT P6SM SCT025
     FM292100 20008KT P6SM BKN025
     FM300100 30008KT P6SM SCT025
     FM300300 04011KT P6SM SCT025 BKN040=

USA.gov is the U.S. government's official web portal to all federal, state and local government web resources and services.